Terminal Aerodrome Forecast
Issued by NWS

Home | Current Version | Previous Version | Text Only | Print | Product List | Glossary On
Versions: 1 2 3 4 5 6 7 8 9 10 11 12 13 14 15 16 17 18 19 20
037
FTUS43 KJKL 120525
TAFSJS
TAF
KSJS 120525Z 1206/1306 VRB03KT P6SM OVC080
     FM121700 27005KT 6SM -SHSN BR BKN030 OVC050
     FM121900 28009KT P6SM SCT015 OVC030=

USA.gov is the U.S. government's official web portal to all federal, state and local government web resources and services.